Patton, CA (92369)

10:09 PM PDT on March 26, 2017 (GMT -0700)
East Highlands Ranch | | Change Station
Active Advisory: Wind Advisory

Elev 1604 ft 34.12 °N, 117.17 °W | Updated 2 minutes ago

Scattered Clouds
Scattered Clouds
57.2 °F
Feels Like 57.2 °F
N
2.0
Wind Variable Wind from NNE
Gusts 2.0 mph

Today
High -- | Low -- °F
--% Chance of Precip.
Yesterday
High -- | Low -- °F
Precip. -- in
Pressure 30.04 in
Visibility 10.0 miles
Clouds Scattered Clouds 3500 ft
Scattered Clouds 4800 ft
Dew Point 49 °F
Humidity 73%
Rainfall 0.00 in
Snow Depth Not available.
6:43 AM 7:05 PM
Waning Crescent, 1% visible
METAR KSBD 270458Z AUTO 25005KT 10SM SCT035 SCT048 15/11 A3004 RMK AO2 T01500105
Pressure 30.04 in
Visibility 10.0 miles
Clouds Scattered Clouds 3500 ft
Scattered Clouds 4800 ft
Dew Point 49 °F
Humidity 73%
Rainfall 0.00 in
Snow Depth Not available.
6:43 AM 7:05 PM
Waning Crescent, 1% visible
METAR KSBD 270458Z AUTO 25005KT 10SM SCT035 SCT048 15/11 A3004 RMK AO2 T01500105

Get Your Daily Forecast Email!

Thanks for signing up!

Be on the lookout for a verification email in your inbox.

You'll start receiving severe weather alerts in your inbox..

×

10-Day Weather Forecast

Almanac

Astronomy

Mar. 26, 2017 Rise Set
Actual Time
Civil Twilight
Nautical Twilight
Astronomical Twilight
Moon
Length of Visible Light
Length of Day
Tomorrow will be .
, % of the Moon is Illuminated

Today's Extremes

State Highs State Lows

Community

WunderPhotos

Upload Photos

1,962,540 photos uploaded!

WunderBlog® & News

Nearby

Air Quality

  Air Quality AQ Index Pollutant
Not available.

Snow Depth

Station Depth Elevation

Earthquake Activity

City Distance Mag. Time & Date
Minimum magnitude displayed is 2.5.

Earthquake Activity

City Distance Mag. Time & Date
Minimum magnitude displayed is 2.5.

Coastal Water Temperatures

Place Temperature

Stations

Nearby Weather Stations

Station Location Temp. Windchill Dew Point Humidity Wind Precip. Elev Updated Type
                   

Watches & Warnings

Wind Advisory
Issued: 9:54 PM PDT Mar. 26, 2017 – National Weather Service

... Wind Advisory remains in effect from 10 PM Monday to 2 PM PDT
Tuesday...

* winds... areas of northeast 20 to 30 mph with gusts to 50 mph.

* Timing... Monday night and Tuesday.

* Location... through and below passes and canyons.

* Impacts... the winds will make driving difficult... especially for
motorists in high profile vehicles. Broken tree limbs possible
and other wind blown debris.

Precautionary/preparedness actions...

A Wind Advisory means that winds of 35 mph are expected. Winds
this strong can make driving difficult... especially for high
profile vehicles. Use extra caution.



Jmb